createdAt,value
2022-12-06T00:01:40.757Z,6.05
2022-12-06T00:04:11.672Z,5.78
2022-12-06T00:06:42.112Z,6.60
2022-12-06T00:09:16.934Z,6.18
2022-12-06T00:11:46.459Z,6.55
2022-12-06T00:14:15.068Z,6.07
2022-12-06T00:16:43.951Z,5.60
2022-12-06T00:19:14.258Z,5.70
2022-12-06T00:21:43.019Z,6.85
2022-12-06T00:24:14.212Z,5.63
2022-12-06T00:26:44.730Z,6.07
2022-12-06T00:29:16.642Z,7.20
2022-12-06T00:31:44.976Z,6.55
2022-12-06T00:34:13.337Z,5.43
2022-12-06T00:36:42.698Z,5.55
2022-12-06T00:39:13.058Z,6.60
2022-12-06T00:41:41.688Z,5.68
2022-12-06T00:44:10.196Z,5.55
2022-12-06T00:46:40.180Z,5.35
2022-12-06T00:49:09.359Z,6.75
2022-12-06T00:51:38.595Z,5.75
2022-12-06T00:54:08.511Z,6.50
2022-12-06T00:56:37.110Z,6.05
2022-12-06T00:59:05.872Z,5.95
2022-12-06T01:01:36.044Z,5.88
2022-12-06T01:04:07.203Z,6.05
2022-12-06T01:06:37.107Z,6.10
2022-12-06T01:09:08.166Z,6.90
2022-12-06T01:11:36.301Z,6.30
2022-12-06T01:14:06.022Z,7.38
2022-12-06T01:16:35.056Z,7.00
2022-12-06T01:19:08.643Z,6.53
2022-12-06T01:21:36.848Z,7.50
2022-12-06T01:24:05.315Z,6.60
2022-12-06T01:26:35.396Z,6.10
2022-12-06T01:29:04.475Z,5.72
2022-12-06T01:31:38.926Z,8.10
2022-12-06T01:34:15.972Z,6.15
2022-12-06T01:36:44.855Z,5.90
2022-12-06T01:39:13.075Z,6.47
2022-12-06T01:41:41.440Z,5.35
2022-12-06T01:44:43.545Z,6.57
2022-12-06T01:47:17.883Z,6.78
2022-12-06T01:49:51.844Z,7.30
2022-12-06T01:52:21.221Z,6.75
2022-12-06T01:54:49.237Z,6.78
2022-12-06T01:57:18.990Z,5.68
2022-12-06T01:59:46.978Z,6.18
2022-12-06T02:02:15.380Z,5.82
2022-12-06T02:04:59.483Z,6.38
2022-12-06T02:07:28.335Z,7.00
2022-12-06T02:09:58.537Z,6.03
2022-12-06T02:12:26.945Z,5.80
2022-12-06T02:14:56.883Z,6.93
2022-12-06T02:17:34.047Z,7.47
2022-12-06T02:20:15.291Z,6.60
2022-12-06T02:23:15.115Z,7.50
2022-12-06T02:26:04.025Z,6.85
2022-12-06T02:29:02.381Z,7.22
2022-12-06T02:31:38.491Z,5.75
2022-12-06T02:34:14.393Z,6.30
2022-12-06T02:36:49.010Z,6.28
2022-12-06T02:39:24.431Z,6.22
2022-12-06T02:41:57.691Z,6.68
2022-12-06T02:44:30.185Z,6.43
2022-12-06T02:47:02.526Z,6.13
2022-12-06T02:49:34.639Z,7.25
2022-12-06T02:52:03.134Z,7.10
2022-12-06T02:54:33.191Z,6.00
2022-12-06T02:57:01.305Z,5.90
2022-12-06T02:59:29.343Z,6.55
2022-12-06T03:02:02.827Z,5.50
2022-12-06T03:04:52.680Z,6.35
2022-12-06T03:07:38.821Z,5.63
2022-12-06T03:10:39.761Z,5.88
2022-12-06T03:13:16.228Z,5.55
2022-12-06T03:15:54.989Z,6.65
2022-12-06T03:18:32.230Z,6.20
2022-12-06T03:21:03.282Z,5.57
2022-12-06T03:23:35.048Z,5.57
2022-12-06T03:26:05.584Z,5.93
2022-12-06T03:28:37.171Z,6.55
2022-12-06T03:31:10.861Z,6.43
2022-12-06T03:33:44.708Z,6.40
2022-12-06T03:36:15.717Z,5.15
2022-12-06T03:38:50.675Z,5.28
2022-12-06T03:41:20.421Z,4.93
2022-12-06T03:43:48.992Z,5.78
2022-12-06T03:46:19.956Z,5.75
2022-12-06T03:48:53.359Z,5.97
2022-12-06T03:51:25.013Z,6.13
2022-12-06T03:53:54.792Z,6.70
2022-12-06T03:56:23.720Z,6.30
2022-12-06T03:58:52.242Z,5.93
2022-12-06T04:01:20.438Z,6.15
2022-12-06T04:03:50.407Z,7.10
2022-12-06T04:06:18.560Z,7.05
2022-12-06T04:08:46.810Z,6.50
2022-12-06T04:11:14.819Z,6.15
2022-12-06T04:13:42.910Z,6.20
2022-12-06T04:16:26.032Z,6.47
2022-12-06T04:18:55.835Z,6.10
2022-12-06T04:21:41.371Z,5.32
2022-12-06T04:24:09.360Z,5.30
2022-12-06T04:26:37.635Z,6.15
2022-12-06T04:29:22.784Z,6.68
2022-12-06T04:32:08.502Z,5.97
2022-12-06T04:34:55.117Z,5.82
2022-12-06T04:37:40.676Z,5.15
2022-12-06T04:40:09.837Z,6.90
2022-12-06T04:42:55.336Z,5.47
2022-12-06T04:45:23.332Z,6.18
2022-12-06T04:47:51.608Z,6.88
2022-12-06T04:50:21.194Z,6.50
2022-12-06T04:52:49.516Z,6.47
2022-12-06T04:55:17.887Z,7.18
2022-12-06T04:57:45.869Z,5.50
2022-12-06T05:00:15.224Z,6.07
2022-12-06T05:02:43.233Z,6.03
2022-12-06T05:05:11.543Z,5.72
2022-12-06T05:07:41.833Z,6.70
2022-12-06T05:10:10.403Z,6.65
2022-12-06T05:12:38.381Z,6.05
2022-12-06T05:15:07.081Z,7.20
2022-12-06T05:17:35.058Z,7.50
2022-12-06T05:20:03.227Z,6.75
2022-12-06T05:22:33.839Z,7.05
2022-12-06T05:25:03.355Z,7.00
2022-12-06T05:27:35.757Z,6.57
2022-12-06T05:30:05.080Z,6.38
2022-12-06T05:32:33.222Z,7.10
2022-12-06T05:35:01.497Z,6.30
2022-12-06T05:37:29.571Z,6.88
2022-12-06T05:39:58.031Z,6.82
2022-12-06T05:42:27.645Z,8.05
2022-12-06T05:44:56.941Z,7.68
2022-12-06T05:47:24.978Z,6.43
2022-12-06T05:49:53.230Z,7.00
2022-12-06T05:52:21.485Z,7.10
2022-12-06T05:54:49.621Z,6.97
2022-12-06T05:57:17.774Z,6.85
2022-12-06T05:59:47.314Z,6.22
2022-12-06T06:02:18.266Z,6.57
2022-12-06T06:04:46.627Z,6.95
2022-12-06T06:07:24.823Z,8.10
2022-12-06T06:09:52.820Z,6.95
2022-12-06T06:12:20.763Z,7.18
2022-12-06T06:14:50.381Z,7.45
2022-12-06T06:17:18.797Z,6.95
2022-12-06T06:19:51.297Z,7.00
2022-12-06T06:22:20.036Z,6.88
2022-12-06T06:24:48.262Z,6.60
2022-12-06T06:27:16.422Z,7.10
2022-12-06T06:29:45.615Z,6.85
2022-12-06T06:32:15.520Z,6.47
2022-12-06T06:34:43.659Z,8.68
2022-12-06T06:37:12.126Z,7.95
2022-12-06T06:39:42.549Z,6.70
2022-12-06T06:42:10.511Z,7.10
2022-12-06T06:44:38.648Z,7.68
2022-12-06T06:47:07.067Z,8.15
2022-12-06T06:49:36.959Z,7.65
2022-12-06T06:52:05.347Z,8.75
2022-12-06T06:54:33.363Z,7.05
2022-12-06T06:57:02.814Z,8.52
2022-12-06T06:59:30.831Z,7.72
2022-12-06T07:01:59.021Z,8.10
2022-12-06T07:04:27.266Z,12.70
2022-12-06T07:06:56.818Z,9.77
2022-12-06T07:09:24.767Z,9.00
2022-12-06T07:11:54.715Z,7.68
2022-12-06T07:14:24.304Z,7.57
2022-12-06T07:16:52.555Z,7.90
2022-12-06T07:19:20.661Z,7.68
2022-12-06T07:21:49.080Z,8.55
2022-12-06T07:24:18.715Z,7.57
2022-12-06T07:26:46.774Z,9.00
2022-12-06T07:29:14.991Z,7.28
2022-12-06T07:31:43.025Z,7.15
2022-12-06T07:34:11.305Z,7.85
2022-12-06T07:36:39.490Z,7.25
2022-12-06T07:39:13.082Z,7.43
2022-12-06T07:42:01.357Z,6.10
2022-12-06T07:45:01.975Z,6.43
2022-12-06T07:47:36.191Z,7.65
2022-12-06T07:50:07.106Z,6.55
2022-12-06T07:52:36.758Z,7.20
2022-12-06T07:55:06.282Z,8.02
2022-12-06T07:57:41.536Z,7.25
2022-12-06T08:00:18.509Z,8.68
2022-12-06T08:02:46.879Z,9.43
2022-12-06T08:05:15.046Z,8.82
2022-12-06T08:07:43.063Z,10.85
2022-12-06T08:10:11.500Z,9.50
2022-12-06T08:12:41.139Z,10.65
2022-12-06T08:15:13.262Z,11.43
2022-12-06T08:17:41.400Z,11.15
2022-12-06T08:20:11.120Z,11.43
2022-12-06T08:22:39.387Z,11.50
2022-12-06T08:25:08.582Z,12.60
2022-12-06T08:27:36.790Z,13.02
2022-12-06T08:30:07.882Z,11.95
2022-12-06T08:32:36.031Z,11.60
2022-12-06T08:35:04.120Z,12.73
2022-12-06T08:37:32.656Z,12.85
2022-12-06T08:40:01.066Z,10.82
2022-12-06T08:42:29.441Z,11.65
2022-12-06T08:44:57.611Z,13.43
2022-12-06T08:47:27.289Z,14.88
2022-12-06T08:49:55.481Z,13.40
2022-12-06T08:52:23.634Z,13.90
2022-12-06T08:54:55.797Z,14.35
2022-12-06T08:57:24.456Z,15.40
2022-12-06T08:59:52.621Z,13.75
2022-12-06T09:02:21.599Z,14.57
2022-12-06T09:04:52.965Z,14.63
2022-12-06T09:07:26.483Z,16.70
2022-12-06T09:09:55.684Z,16.55
2022-12-06T09:12:24.447Z,17.48
2022-12-06T09:14:52.803Z,14.27
2022-12-06T09:17:20.793Z,15.35
2022-12-06T09:19:48.982Z,14.57
2022-12-06T09:22:24.288Z,16.50
2022-12-06T09:24:52.405Z,16.73
2022-12-06T09:27:21.413Z,16.27
2022-12-06T09:29:49.535Z,14.48
2022-12-06T09:32:17.809Z,14.43
2022-12-06T09:34:46.078Z,14.35
2022-12-06T09:37:15.166Z,14.18
2022-12-06T09:39:47.920Z,13.00
2022-12-06T09:42:43.566Z,12.95
2022-12-06T09:45:26.156Z,11.20
2022-12-06T09:48:13.197Z,10.65
2022-12-06T09:50:55.582Z,12.55
2022-12-06T09:53:39.086Z,9.65
2022-12-06T09:56:18.334Z,10.25
2022-12-06T09:59:01.255Z,10.15
2022-12-06T10:01:47.065Z,11.50
2022-12-06T10:04:39.895Z,9.80
2022-12-06T10:07:16.687Z,10.15
2022-12-06T10:09:56.648Z,10.25
2022-12-06T10:12:38.612Z,10.77
2022-12-06T10:15:26.293Z,8.85
2022-12-06T10:18:10.690Z,10.57
2022-12-06T10:20:45.867Z,7.95
2022-12-06T10:23:27.458Z,7.35
2022-12-06T10:26:01.096Z,7.18
2022-12-06T10:28:40.758Z,7.72
2022-12-06T10:31:21.593Z,7.32
2022-12-06T10:33:56.439Z,7.40
2022-12-06T10:36:39.758Z,7.05
2022-12-06T10:39:16.320Z,8.07
2022-12-06T10:41:53.946Z,8.18
2022-12-06T10:44:29.915Z,7.82
2022-12-06T10:47:04.923Z,8.25
2022-12-06T10:49:55.135Z,9.00
2022-12-06T10:52:37.309Z,8.25
2022-12-06T10:55:23.143Z,8.70
2022-12-06T10:57:57.449Z,7.40
2022-12-06T11:00:28.636Z,8.88
2022-12-06T11:03:05.673Z,7.55
2022-12-06T11:05:39.223Z,8.93
2022-12-06T11:08:13.043Z,9.55
2022-12-06T11:10:43.696Z,8.30
2022-12-06T11:13:21.316Z,7.20
2022-12-06T11:15:56.760Z,7.40
2022-12-06T11:18:29.582Z,7.03
2022-12-06T11:21:03.013Z,6.55
2022-12-06T11:23:42.649Z,7.22
2022-12-06T11:26:25.469Z,6.90
2022-12-06T11:29:05.105Z,6.72
2022-12-06T11:31:44.820Z,5.38
2022-12-06T11:34:17.482Z,4.90
2022-12-06T11:36:47.797Z,6.03
2022-12-06T11:39:16.714Z,5.13
2022-12-06T11:41:47.310Z,5.95
2022-12-06T11:44:20.398Z,5.07
2022-12-06T11:46:56.689Z,5.78
2022-12-06T11:49:42.407Z,4.95
2022-12-06T11:52:17.167Z,5.63
2022-12-06T11:54:51.189Z,4.97
2022-12-06T11:57:24.017Z,5.07
2022-12-06T12:00:15.624Z,5.03
2022-12-06T12:02:47.543Z,5.15
2022-12-06T12:05:21.477Z,4.63
2022-12-06T12:07:53.350Z,5.03
2022-12-06T12:10:27.393Z,6.03
2022-12-06T12:13:12.576Z,6.75
2022-12-06T12:15:49.106Z,6.30
2022-12-06T12:18:26.340Z,6.18
2022-12-06T12:20:56.089Z,7.03
2022-12-06T12:23:28.949Z,6.78
2022-12-06T12:26:02.848Z,6.47
2022-12-06T12:28:33.047Z,7.38
2022-12-06T12:31:09.662Z,7.38
2022-12-06T12:33:39.424Z,6.32
2022-12-06T12:36:17.305Z,6.05
2022-12-06T12:38:55.104Z,6.85
2022-12-06T12:41:32.372Z,6.47
2022-12-06T12:46:55.698Z,7.93
2022-12-06T12:49:29.502Z,8.13
2022-12-06T12:51:58.754Z,7.78
2022-12-06T12:54:30.830Z,6.97
2022-12-06T12:57:00.132Z,8.05
2022-12-06T12:59:32.832Z,7.43
2022-12-06T13:02:13.809Z,8.15
2022-12-06T13:04:46.648Z,7.82
2022-12-06T13:07:25.263Z,8.52
2022-12-06T13:10:01.334Z,7.40
2022-12-06T13:12:34.303Z,7.55
2022-12-06T13:15:10.288Z,7.32
2022-12-06T13:17:43.235Z,7.68
2022-12-06T13:20:22.923Z,8.40
2022-12-06T13:22:54.668Z,7.07
2022-12-06T13:25:22.832Z,8.30
2022-12-06T13:27:54.639Z,7.90
2022-12-06T13:30:25.027Z,7.25
2022-12-06T13:32:56.438Z,6.35
2022-12-06T13:35:30.228Z,6.57
2022-12-06T13:38:00.607Z,6.70
2022-12-06T13:40:47.657Z,6.32
2022-12-06T13:43:56.130Z,5.70
2022-12-06T13:46:33.169Z,4.40
2022-12-06T13:49:26.710Z,5.13
2022-12-06T13:51:56.219Z,6.05
2022-12-06T13:54:42.230Z,4.88
2022-12-06T13:57:29.765Z,4.40
2022-12-06T13:59:58.296Z,5.90
2022-12-06T14:02:45.448Z,4.75
2022-12-06T14:08:23.644Z,4.93
2022-12-06T14:10:51.939Z,5.45
2022-12-06T14:13:21.968Z,4.75
2022-12-06T14:15:52.432Z,4.78
2022-12-06T14:18:25.058Z,5.85
2022-12-06T14:20:57.994Z,5.68
2022-12-06T14:23:30.959Z,6.03
2022-12-06T14:26:17.291Z,6.70
2022-12-06T14:28:45.878Z,6.55
2022-12-06T14:31:26.005Z,6.78
2022-12-06T14:33:56.025Z,6.68
2022-12-06T14:36:49.969Z,6.70
2022-12-06T14:39:32.025Z,6.95
2022-12-06T14:42:20.036Z,6.88
2022-12-06T14:44:49.877Z,6.45
2022-12-06T14:47:19.934Z,8.05
2022-12-06T14:50:10.221Z,6.50
2022-12-06T14:52:58.098Z,5.75
2022-12-06T14:55:30.854Z,6.72
2022-12-06T14:58:04.236Z,6.13
2022-12-06T15:00:49.738Z,7.80
2022-12-06T15:03:49.407Z,7.20
2022-12-06T15:06:32.734Z,7.13
2022-12-06T15:09:17.656Z,5.60
2022-12-06T15:15:36.014Z,6.85
2022-12-06T15:18:10.538Z,6.45
2022-12-06T15:20:38.899Z,6.45
2022-12-06T15:23:36.007Z,6.55
2022-12-06T15:26:05.650Z,6.82
2022-12-06T15:28:35.867Z,5.90
2022-12-06T15:31:06.427Z,6.80
2022-12-06T15:33:34.885Z,6.10
2022-12-06T15:36:27.566Z,6.45
2022-12-06T15:38:55.812Z,7.05
2022-12-06T15:41:26.570Z,6.30
2022-12-06T15:43:57.611Z,6.82
2022-12-06T15:46:30.318Z,6.75
2022-12-06T15:48:58.577Z,7.20
2022-12-06T15:51:28.223Z,6.85
2022-12-06T15:53:58.669Z,5.85
2022-12-06T15:56:29.885Z,6.35
2022-12-06T15:58:58.055Z,6.45
2022-12-06T16:01:40.534Z,6.30
2022-12-06T16:04:17.303Z,6.30
2022-12-06T16:06:45.604Z,5.50
2022-12-06T16:09:15.777Z,6.38
2022-12-06T16:11:44.366Z,6.28
2022-12-06T16:14:12.659Z,5.50
2022-12-06T16:16:43.655Z,5.82
2022-12-06T16:19:12.298Z,7.05
2022-12-06T16:21:52.644Z,6.53
2022-12-06T16:24:20.450Z,6.60
2022-12-06T16:26:49.424Z,6.80
2022-12-06T16:29:21.074Z,7.35
2022-12-06T16:31:51.684Z,7.03
2022-12-06T16:34:19.903Z,7.30
2022-12-06T16:37:00.441Z,7.13
2022-12-06T16:39:30.407Z,6.65
2022-12-06T16:41:59.016Z,7.03
2022-12-06T16:44:27.207Z,6.50
2022-12-06T16:46:59.981Z,7.95
2022-12-06T16:49:45.807Z,6.80
2022-12-06T16:52:15.442Z,7.43
2022-12-06T16:54:43.908Z,6.38
2022-12-06T16:57:37.171Z,5.85
2022-12-06T17:00:06.066Z,6.50
2022-12-06T17:02:37.857Z,7.57
2022-12-06T17:05:21.603Z,7.05
2022-12-06T17:07:50.904Z,7.20
2022-12-06T17:10:24.034Z,7.90
2022-12-06T17:12:52.172Z,8.40
2022-12-06T17:15:22.288Z,7.57
2022-12-06T17:17:52.088Z,7.55
2022-12-06T17:20:21.031Z,7.65
2022-12-06T17:22:49.482Z,7.38
2022-12-06T17:25:18.333Z,6.75
2022-12-06T17:27:46.578Z,7.50
2022-12-06T17:30:18.241Z,8.38
2022-12-06T17:32:47.908Z,7.07
2022-12-06T17:35:17.633Z,7.47
2022-12-06T17:37:45.879Z,7.50
2022-12-06T17:40:15.135Z,6.60
2022-12-06T17:43:00.569Z,7.82
2022-12-06T17:45:28.981Z,7.50
2022-12-06T17:47:57.282Z,7.10
2022-12-06T17:50:26.822Z,6.90
2022-12-06T17:52:55.395Z,8.00
2022-12-06T17:55:23.524Z,7.45
2022-12-06T17:57:52.025Z,7.05
2022-12-06T18:00:20.778Z,7.15
2022-12-06T18:02:49.273Z,7.28
2022-12-06T18:05:17.727Z,6.57
2022-12-06T18:07:47.144Z,8.52
2022-12-06T18:10:15.473Z,8.75
2022-12-06T18:12:43.469Z,8.15
2022-12-06T18:15:33.312Z,7.32
2022-12-06T18:18:01.346Z,7.93
2022-12-06T18:20:29.672Z,7.80
2022-12-06T18:22:59.163Z,8.40
2022-12-06T18:25:27.450Z,7.85
2022-12-06T18:27:55.906Z,6.80
2022-12-06T18:30:23.952Z,7.15
2022-12-06T18:32:52.149Z,7.57
2022-12-06T18:35:20.386Z,6.18
2022-12-06T18:37:48.759Z,6.53
2022-12-06T18:40:18.575Z,7.03
2022-12-06T18:42:46.664Z,6.20
2022-12-06T18:45:15.009Z,6.78
2022-12-06T18:47:43.100Z,5.70
2022-12-06T18:50:12.094Z,6.00
2022-12-06T18:52:40.169Z,6.50
2022-12-06T18:55:09.443Z,6.97
2022-12-06T18:57:39.395Z,5.95
2022-12-06T19:00:09.139Z,5.95
2022-12-06T19:02:37.454Z,7.22
2022-12-06T19:05:06.869Z,6.05
2022-12-06T19:07:35.333Z,7.20
2022-12-06T19:10:03.849Z,6.35
2022-12-06T19:12:32.525Z,6.38
2022-12-06T19:15:02.146Z,6.43
2022-12-06T19:17:30.292Z,5.85
2022-12-06T19:19:58.977Z,6.90
2022-12-06T19:22:27.275Z,6.15
2022-12-06T19:24:55.541Z,6.70
2022-12-06T19:27:23.690Z,5.57
2022-12-06T19:29:52.265Z,6.47
2022-12-06T19:32:21.886Z,7.28
2022-12-06T19:34:50.916Z,6.20
2022-12-06T19:37:19.033Z,5.35
2022-12-06T19:39:47.354Z,6.53
2022-12-06T19:42:32.842Z,7.30
2022-12-06T19:45:00.972Z,6.55
2022-12-06T19:47:31.416Z,6.13
2022-12-06T19:50:00.753Z,6.25
2022-12-06T19:52:31.096Z,7.65
2022-12-06T19:54:59.468Z,6.60
2022-12-06T19:57:27.626Z,6.78
2022-12-06T19:59:56.479Z,5.72
2022-12-06T20:02:24.663Z,6.95
2022-12-06T20:04:54.273Z,6.65
2022-12-06T20:07:22.535Z,6.45
2022-12-06T20:09:51.035Z,6.30
2022-12-06T20:12:19.841Z,6.95
2022-12-06T20:14:49.879Z,6.95
2022-12-06T20:17:20.047Z,7.05
2022-12-06T20:19:49.239Z,6.15
2022-12-06T20:22:22.160Z,7.60
2022-12-06T20:24:50.517Z,6.15
2022-12-06T20:27:41.895Z,7.25
2022-12-06T20:30:11.334Z,7.18
2022-12-06T20:32:39.545Z,6.80
2022-12-06T20:35:08.414Z,7.00
2022-12-06T20:37:38.602Z,7.93
2022-12-06T20:40:08.301Z,7.57
2022-12-06T20:42:37.039Z,7.60
2022-12-06T20:45:05.961Z,7.72
2022-12-06T20:47:34.097Z,7.82
2022-12-06T20:50:02.964Z,8.13
2022-12-06T20:52:31.864Z,8.02
2022-12-06T20:55:01.465Z,6.97
2022-12-06T20:57:29.744Z,6.80
2022-12-06T21:00:00.881Z,7.95
2022-12-06T21:02:34.009Z,7.32
2022-12-06T21:05:02.372Z,8.13
2022-12-06T21:07:30.724Z,8.80
2022-12-06T21:09:59.161Z,8.20
2022-12-06T21:12:28.984Z,8.32
2022-12-06T21:14:57.485Z,7.70
2022-12-06T21:17:25.644Z,8.52
2022-12-06T21:19:53.990Z,9.23
2022-12-06T21:22:22.078Z,7.88
2022-12-06T21:24:50.186Z,8.82
2022-12-06T21:27:18.273Z,7.75
2022-12-06T21:29:48.443Z,10.13
2022-12-06T21:32:16.674Z,8.30
2022-12-06T21:34:46.769Z,8.50
2022-12-06T21:37:15.129Z,9.15
2022-12-06T21:39:46.723Z,7.65
2022-12-06T21:42:15.933Z,7.93
2022-12-06T21:44:44.067Z,8.70
2022-12-06T21:47:13.741Z,8.52
2022-12-06T21:49:42.322Z,9.63
2022-12-06T21:52:10.444Z,8.85
2022-12-06T21:54:38.770Z,8.32
2022-12-06T21:57:12.504Z,8.52
2022-12-06T21:59:40.784Z,8.93
2022-12-06T22:02:10.677Z,8.75
2022-12-06T22:04:40.501Z,9.38
2022-12-06T22:07:08.682Z,8.57
2022-12-06T22:09:36.735Z,8.50
2022-12-06T22:12:05.583Z,8.88
2022-12-06T22:14:33.824Z,8.57
2022-12-06T22:17:01.893Z,10.27
2022-12-06T22:19:30.179Z,9.05
2022-12-06T22:22:00.140Z,8.55
2022-12-06T22:24:28.358Z,9.10
2022-12-06T22:26:56.576Z,9.65
2022-12-06T22:29:24.774Z,10.75
2022-12-06T22:31:52.878Z,9.75
2022-12-06T22:34:20.977Z,9.90
2022-12-06T22:36:49.275Z,9.43
2022-12-06T22:39:19.702Z,9.10
2022-12-06T22:41:48.085Z,9.75
2022-12-06T22:44:19.617Z,9.38
2022-12-06T22:46:47.893Z,8.02
2022-12-06T22:49:18.168Z,8.93
2022-12-06T22:51:46.901Z,9.27
2022-12-06T22:54:16.056Z,8.23
2022-12-06T22:56:48.412Z,9.27
2022-12-06T22:59:18.931Z,9.10
2022-12-06T23:01:47.484Z,9.65
2022-12-06T23:04:15.914Z,11.73
2022-12-06T23:06:44.137Z,9.60
2022-12-06T23:09:16.145Z,9.65
2022-12-06T23:11:46.008Z,9.48
2022-12-06T23:14:14.060Z,9.88
2022-12-06T23:16:43.961Z,9.52
2022-12-06T23:19:12.161Z,10.50
2022-12-06T23:21:42.635Z,8.60
2022-12-06T23:24:13.014Z,10.57
2022-12-06T23:26:43.824Z,9.82
2022-12-06T23:29:13.717Z,9.88
2022-12-06T23:31:43.885Z,8.10
2022-12-06T23:34:14.197Z,9.35
2022-12-06T23:36:43.201Z,8.57
2022-12-06T23:39:11.845Z,9.65
2022-12-06T23:41:40.437Z,9.27
2022-12-06T23:44:10.629Z,8.13
2022-12-06T23:46:41.285Z,9.65
2022-12-06T23:49:16.171Z,8.60
2022-12-06T23:51:44.652Z,8.70
2022-12-06T23:54:18.089Z,9.15
2022-12-06T23:56:46.792Z,8.02
2022-12-06T23:59:18.891Z,9.38
